sensor_id;sensor_type;location;lat;lon;timestamp;P1;durP1;ratioP1;P2;durP2;ratioP2
13163;SDS011;6647;53.688;10.746;2023-11-21T00:00:20;19.15;;;11.80;;
13163;SDS011;6647;53.688;10.746;2023-11-21T00:01:20;14.87;;;11.40;;
13163;SDS011;6647;53.688;10.746;2023-11-21T00:02:21;18.27;;;12.27;;
13163;SDS011;6647;53.688;10.746;2023-11-21T00:03:21;17.33;;;12.17;;
13163;SDS011;6647;53.688;10.746;2023-11-21T00:04:23;17.30;;;12.23;;
13163;SDS011;6647;53.688;10.746;2023-11-21T00:05:24;15.93;;;12.07;;
13163;SDS011;6647;53.688;10.746;2023-11-21T00:06:24;16.70;;;12.20;;
13163;SDS011;6647;53.688;10.746;2023-11-21T00:07:25;15.17;;;11.90;;
13163;SDS011;6647;53.688;10.746;2023-11-21T00:08:25;16.13;;;12.60;;
13163;SDS011;6647;53.688;10.746;2023-11-21T00:09:25;18.63;;;12.77;;
13163;SDS011;6647;53.688;10.746;2023-11-21T00:10:26;20.77;;;13.50;;
13163;SDS011;6647;53.688;10.746;2023-11-21T00:11:26;19.20;;;12.90;;
13163;SDS011;6647;53.688;10.746;2023-11-21T00:12:27;21.73;;;11.70;;
13163;SDS011;6647;53.688;10.746;2023-11-21T00:13:29;20.83;;;11.60;;
13163;SDS011;6647;53.688;10.746;2023-11-21T00:14:29;18.73;;;12.07;;
13163;SDS011;6647;53.688;10.746;2023-11-21T00:15:30;15.90;;;12.00;;
13163;SDS011;6647;53.688;10.746;2023-11-21T00:16:30;19.43;;;12.47;;
13163;SDS011;6647;53.688;10.746;2023-11-21T00:17:30;16.10;;;11.23;;
13163;SDS011;6647;53.688;10.746;2023-11-21T00:18:31;18.53;;;11.50;;
13163;SDS011;6647;53.688;10.746;2023-11-21T00:19:31;15.20;;;11.40;;
13163;SDS011;6647;53.688;10.746;2023-11-21T00:20:33;18.02;;;11.82;;
13163;SDS011;6647;53.688;10.746;2023-11-21T00:21:33;15.97;;;11.27;;
13163;SDS011;6647;53.688;10.746;2023-11-21T00:22:34;13.90;;;10.67;;
13163;SDS011;6647;53.688;10.746;2023-11-21T00:23:35;15.00;;;11.48;;
13163;SDS011;6647;53.688;10.746;2023-11-21T00:24:35;18.20;;;10.97;;
13163;SDS011;6647;53.688;10.746;2023-11-21T00:25:36;15.73;;;11.67;;
13163;SDS011;6647;53.688;10.746;2023-11-21T00:26:36;15.03;;;10.23;;
13163;SDS011;6647;53.688;10.746;2023-11-21T00:27:38;16.15;;;11.35;;
13163;SDS011;6647;53.688;10.746;2023-11-21T00:28:38;14.97;;;11.23;;
13163;SDS011;6647;53.688;10.746;2023-11-21T00:29:38;16.13;;;10.60;;
13163;SDS011;6647;53.688;10.746;2023-11-21T00:30:39;17.97;;;11.30;;
13163;SDS011;6647;53.688;10.746;2023-11-21T00:31:39;15.83;;;11.20;;
13163;SDS011;6647;53.688;10.746;2023-11-21T00:32:39;17.30;;;12.33;;
13163;SDS011;6647;53.688;10.746;2023-11-21T00:33:40;15.90;;;10.63;;
13163;SDS011;6647;53.688;10.746;2023-11-21T00:34:40;19.70;;;12.47;;
13163;SDS011;6647;53.688;10.746;2023-11-21T00:35:40;17.33;;;12.07;;
13163;SDS011;6647;53.688;10.746;2023-11-21T00:36:41;19.23;;;11.50;;
13163;SDS011;6647;53.688;10.746;2023-11-21T00:37:41;18.07;;;11.40;;
13163;SDS011;6647;53.688;10.746;2023-11-21T00:38:42;14.43;;;10.73;;
13163;SDS011;6647;53.688;10.746;2023-11-21T00:39:42;13.60;;;10.63;;
13163;SDS011;6647;53.688;10.746;2023-11-21T00:40:43;15.43;;;11.20;;
13163;SDS011;6647;53.688;10.746;2023-11-21T00:41:43;11.97;;;10.60;;
13163;SDS011;6647;53.688;10.746;2023-11-21T00:42:44;15.02;;;10.27;;
13163;SDS011;6647;53.688;10.746;2023-11-21T00:43:45;12.57;;;9.80;;
13163;SDS011;6647;53.688;10.746;2023-11-21T00:44:46;19.57;;;11.50;;
13163;SDS011;6647;53.688;10.746;2023-11-21T00:45:46;15.63;;;10.73;;
13163;SDS011;6647;53.688;10.746;2023-11-21T00:46:49;15.30;;;10.32;;
13163;SDS011;6647;53.688;10.746;2023-11-21T00:47:50;14.32;;;10.80;;
13163;SDS011;6647;53.688;10.746;2023-11-21T00:48:51;13.87;;;10.70;;
13163;SDS011;6647;53.688;10.746;2023-11-21T00:49:51;14.97;;;10.27;;
13163;SDS011;6647;53.688;10.746;2023-11-21T00:50:51;15.83;;;10.30;;
13163;SDS011;6647;53.688;10.746;2023-11-21T00:51:51;13.93;;;10.53;;
13163;SDS011;6647;53.688;10.746;2023-11-21T00:52:52;15.60;;;10.63;;
13163;SDS011;6647;53.688;10.746;2023-11-21T00:53:52;11.90;;;9.40;;
13163;SDS011;6647;53.688;10.746;2023-11-21T00:54:53;13.30;;;10.00;;
13163;SDS011;6647;53.688;10.746;2023-11-21T00:55:53;13.20;;;10.63;;
13163;SDS011;6647;53.688;10.746;2023-11-21T00:56:57;12.98;;;9.63;;
13163;SDS011;6647;53.688;10.746;2023-11-21T00:57:57;14.50;;;10.90;;
13163;SDS011;6647;53.688;10.746;2023-11-21T00:58:58;14.02;;;10.95;;
13163;SDS011;6647;53.688;10.746;2023-11-21T00:59:58;15.63;;;9.93;;
13163;SDS011;6647;53.688;10.746;2023-11-21T01:00:59;14.33;;;10.60;;
13163;SDS011;6647;53.688;10.746;2023-11-21T01:01:59;12.30;;;9.90;;
13163;SDS011;6647;53.688;10.746;2023-11-21T01:03:01;15.05;;;10.70;;
13163;SDS011;6647;53.688;10.746;2023-11-21T01:04:02;14.93;;;10.23;;
13163;SDS011;6647;53.688;10.746;2023-11-21T01:05:02;13.87;;;10.00;;
13163;SDS011;6647;53.688;10.746;2023-11-21T01:06:03;16.13;;;9.27;;
13163;SDS011;6647;53.688;10.746;2023-11-21T01:07:07;15.80;;;9.30;;
13163;SDS011;6647;53.688;10.746;2023-11-21T01:08:07;13.57;;;9.40;;
13163;SDS011;6647;53.688;10.746;2023-11-21T01:09:08;13.67;;;9.80;;
13163;SDS011;6647;53.688;10.746;2023-11-21T01:10:08;14.17;;;10.27;;
13163;SDS011;6647;53.688;10.746;2023-11-21T01:11:09;14.60;;;10.93;;
13163;SDS011;6647;53.688;10.746;2023-11-21T01:12:12;14.40;;;10.80;;
13163;SDS011;6647;53.688;10.746;2023-11-21T01:13:13;13.37;;;10.00;;
13163;SDS011;6647;53.688;10.746;2023-11-21T01:14:15;11.95;;;8.85;;
13163;SDS011;6647;53.688;10.746;2023-11-21T01:15:17;12.98;;;9.75;;
13163;SDS011;6647;53.688;10.746;2023-11-21T01:16:18;12.83;;;9.90;;
13163;SDS011;6647;53.688;10.746;2023-11-21T01:17:18;12.30;;;9.57;;
13163;SDS011;6647;53.688;10.746;2023-11-21T01:18:18;16.33;;;9.47;;
13163;SDS011;6647;53.688;10.746;2023-11-21T01:19:19;14.10;;;9.57;;
13163;SDS011;6647;53.688;10.746;2023-11-21T01:20:19;15.73;;;9.80;;
13163;SDS011;6647;53.688;10.746;2023-11-21T01:21:20;17.23;;;10.60;;
13163;SDS011;6647;53.688;10.746;2023-11-21T01:22:20;12.93;;;10.10;;
13163;SDS011;6647;53.688;10.746;2023-11-21T01:23:26;19.52;;;11.65;;
13163;SDS011;6647;53.688;10.746;2023-11-21T01:24:27;15.35;;;10.00;;
13163;SDS011;6647;53.688;10.746;2023-11-21T01:25:27;16.80;;;10.67;;
13163;SDS011;6647;53.688;10.746;2023-11-21T01:26:27;16.33;;;10.53;;
13163;SDS011;6647;53.688;10.746;2023-11-21T01:27:28;16.57;;;10.07;;
13163;SDS011;6647;53.688;10.746;2023-11-21T01:28:28;15.50;;;10.57;;
13163;SDS011;6647;53.688;10.746;2023-11-21T01:29:28;13.87;;;10.30;;
13163;SDS011;6647;53.688;10.746;2023-11-21T01:30:29;16.60;;;9.90;;
13163;SDS011;6647;53.688;10.746;2023-11-21T01:31:29;15.50;;;11.17;;
13163;SDS011;6647;53.688;10.746;2023-11-21T01:32:29;15.53;;;10.83;;
13163;SDS011;6647;53.688;10.746;2023-11-21T01:33:30;15.23;;;10.87;;
13163;SDS011;6647;53.688;10.746;2023-11-21T01:34:30;15.07;;;10.50;;
13163;SDS011;6647;53.688;10.746;2023-11-21T01:35:30;14.53;;;10.60;;
13163;SDS011;6647;53.688;10.746;2023-11-21T01:36:31;15.00;;;10.60;;
13163;SDS011;6647;53.688;10.746;2023-11-21T01:37:32;15.38;;;11.15;;
13163;SDS011;6647;53.688;10.746;2023-11-21T01:38:33;17.20;;;10.67;;
13163;SDS011;6647;53.688;10.746;2023-11-21T01:39:34;14.50;;;10.07;;
13163;SDS011;6647;53.688;10.746;2023-11-21T01:40:34;13.63;;;9.23;;
13163;SDS011;6647;53.688;10.746;2023-11-21T01:41:35;12.47;;;9.73;;
13163;SDS011;6647;53.688;10.746;2023-11-21T01:42:35;14.50;;;10.37;;
13163;SDS011;6647;53.688;10.746;2023-11-21T01:43:35;15.30;;;10.10;;
13163;SDS011;6647;53.688;10.746;2023-11-21T01:44:37;13.18;;;10.77;;
13163;SDS011;6647;53.688;10.746;2023-11-21T01:45:37;15.33;;;10.50;;
13163;SDS011;6647;53.688;10.746;2023-11-21T01:46:39;14.85;;;9.20;;
13163;SDS011;6647;53.688;10.746;2023-11-21T01:47:40;14.15;;;10.68;;
13163;SDS011;6647;53.688;10.746;2023-11-21T01:48:41;17.10;;;9.70;;
13163;SDS011;6647;53.688;10.746;2023-11-21T01:49:45;15.27;;;9.47;;
13163;SDS011;6647;53.688;10.746;2023-11-21T01:50:45;13.00;;;8.63;;
13163;SDS011;6647;53.688;10.746;2023-11-21T01:51:46;16.40;;;9.50;;
13163;SDS011;6647;53.688;10.746;2023-11-21T01:52:49;14.82;;;8.95;;
13163;SDS011;6647;53.688;10.746;2023-11-21T01:53:49;14.47;;;8.33;;
13163;SDS011;6647;53.688;10.746;2023-11-21T01:54:49;13.13;;;9.50;;
13163;SDS011;6647;53.688;10.746;2023-11-21T01:55:50;11.90;;;8.90;;
13163;SDS011;6647;53.688;10.746;2023-11-21T01:56:50;11.03;;;7.90;;
13163;SDS011;6647;53.688;10.746;2023-11-21T01:57:51;11.13;;;8.30;;
13163;SDS011;6647;53.688;10.746;2023-11-21T01:58:51;11.80;;;7.63;;
13163;SDS011;6647;53.688;10.746;2023-11-21T01:59:52;9.63;;;7.77;;
13163;SDS011;6647;53.688;10.746;2023-11-21T02:00:54;12.45;;;7.93;;
13163;SDS011;6647;53.688;10.746;2023-11-21T02:01:55;10.10;;;8.00;;
13163;SDS011;6647;53.688;10.746;2023-11-21T02:02:56;9.63;;;8.48;;
13163;SDS011;6647;53.688;10.746;2023-11-21T02:03:57;12.80;;;8.30;;
13163;SDS011;6647;53.688;10.746;2023-11-21T02:04:57;12.93;;;8.40;;
13163;SDS011;6647;53.688;10.746;2023-11-21T02:05:57;10.80;;;8.20;;
13163;SDS011;6647;53.688;10.746;2023-11-21T02:06:58;9.80;;;8.13;;
13163;SDS011;6647;53.688;10.746;2023-11-21T02:07:59;11.35;;;8.10;;
13163;SDS011;6647;53.688;10.746;2023-11-21T02:09:00;10.00;;;7.55;;
13163;SDS011;6647;53.688;10.746;2023-11-21T02:10:01;10.40;;;7.60;;
13163;SDS011;6647;53.688;10.746;2023-11-21T02:11:01;12.10;;;8.73;;
13163;SDS011;6647;53.688;10.746;2023-11-21T02:12:02;12.50;;;8.23;;
13163;SDS011;6647;53.688;10.746;2023-11-21T02:13:04;10.10;;;8.55;;
13163;SDS011;6647;53.688;10.746;2023-11-21T02:14:04;11.20;;;8.50;;
13163;SDS011;6647;53.688;10.746;2023-11-21T02:15:08;15.25;;;8.95;;
13163;SDS011;6647;53.688;10.746;2023-11-21T02:16:14;14.70;;;8.90;;
13163;SDS011;6647;53.688;10.746;2023-11-21T02:17:15;15.10;;;9.03;;
13163;SDS011;6647;53.688;10.746;2023-11-21T02:18:15;11.63;;;8.40;;
13163;SDS011;6647;53.688;10.746;2023-11-21T02:19:17;12.47;;;8.67;;
13163;SDS011;6647;53.688;10.746;2023-11-21T02:20:23;11.93;;;8.55;;
13163;SDS011;6647;53.688;10.746;2023-11-21T02:21:24;11.98;;;8.52;;
13163;SDS011;6647;53.688;10.746;2023-11-21T02:22:26;11.35;;;8.77;;
13163;SDS011;6647;53.688;10.746;2023-11-21T02:23:30;12.60;;;8.38;;
13163;SDS011;6647;53.688;10.746;2023-11-21T02:24:31;10.30;;;8.23;;
13163;SDS011;6647;53.688;10.746;2023-11-21T02:25:32;11.93;;;8.90;;
13163;SDS011;6647;53.688;10.746;2023-11-21T02:26:33;10.40;;;8.73;;
13163;SDS011;6647;53.688;10.746;2023-11-21T02:27:33;11.00;;;8.30;;
13163;SDS011;6647;53.688;10.746;2023-11-21T02:28:33;11.90;;;9.10;;
13163;SDS011;6647;53.688;10.746;2023-11-21T02:29:34;13.07;;;9.00;;
13163;SDS011;6647;53.688;10.746;2023-11-21T02:30:34;14.70;;;10.20;;
13163;SDS011;6647;53.688;10.746;2023-11-21T02:31:35;11.90;;;8.82;;
13163;SDS011;6647;53.688;10.746;2023-11-21T02:32:36;13.70;;;8.90;;
13163;SDS011;6647;53.688;10.746;2023-11-21T02:33:36;12.93;;;9.53;;
13163;SDS011;6647;53.688;10.746;2023-11-21T02:34:37;9.97;;;8.70;;
13163;SDS011;6647;53.688;10.746;2023-11-21T02:35:38;15.90;;;9.50;;
13163;SDS011;6647;53.688;10.746;2023-11-21T02:36:38;11.80;;;8.67;;
13163;SDS011;6647;53.688;10.746;2023-11-21T02:37:39;14.00;;;9.90;;
13163;SDS011;6647;53.688;10.746;2023-11-21T02:38:40;10.82;;;9.30;;
13163;SDS011;6647;53.688;10.746;2023-11-21T02:39:41;13.17;;;9.50;;
13163;SDS011;6647;53.688;10.746;2023-11-21T02:40:42;20.37;;;9.67;;
13163;SDS011;6647;53.688;10.746;2023-11-21T02:41:43;10.65;;;8.85;;
13163;SDS011;6647;53.688;10.746;2023-11-21T02:42:44;11.45;;;9.23;;
13163;SDS011;6647;53.688;10.746;2023-11-21T02:43:44;13.23;;;9.20;;
13163;SDS011;6647;53.688;10.746;2023-11-21T02:44:45;11.87;;;8.77;;
13163;SDS011;6647;53.688;10.746;2023-11-21T02:45:45;12.03;;;9.20;;
13163;SDS011;6647;53.688;10.746;2023-11-21T02:46:45;11.70;;;9.37;;
13163;SDS011;6647;53.688;10.746;2023-11-21T02:47:47;12.35;;;8.63;;
13163;SDS011;6647;53.688;10.746;2023-11-21T02:48:48;18.63;;;9.70;;
13163;SDS011;6647;53.688;10.746;2023-11-21T02:49:51;10.27;;;9.18;;
13163;SDS011;6647;53.688;10.746;2023-11-21T02:50:52;16.77;;;9.15;;
13163;SDS011;6647;53.688;10.746;2023-11-21T02:51:53;11.23;;;9.00;;
13163;SDS011;6647;53.688;10.746;2023-11-21T02:52:54;11.25;;;8.77;;
13163;SDS011;6647;53.688;10.746;2023-11-21T02:53:57;14.57;;;8.40;;
13163;SDS011;6647;53.688;10.746;2023-11-21T02:55:03;16.25;;;9.70;;
13163;SDS011;6647;53.688;10.746;2023-11-21T02:56:03;14.40;;;9.80;;
13163;SDS011;6647;53.688;10.746;2023-11-21T02:57:04;14.70;;;9.40;;
13163;SDS011;6647;53.688;10.746;2023-11-21T02:58:05;11.98;;;9.60;;
13163;SDS011;6647;53.688;10.746;2023-11-21T02:59:06;12.27;;;9.20;;
13163;SDS011;6647;53.688;10.746;2023-11-21T03:00:07;11.27;;;9.17;;
13163;SDS011;6647;53.688;10.746;2023-11-21T03:01:07;13.68;;;9.93;;
13163;SDS011;6647;53.688;10.746;2023-11-21T03:02:08;12.40;;;8.90;;
13163;SDS011;6647;53.688;10.746;2023-11-21T03:03:08;11.00;;;8.73;;
13163;SDS011;6647;53.688;10.746;2023-11-21T03:04:08;12.90;;;9.33;;
13163;SDS011;6647;53.688;10.746;2023-11-21T03:05:09;11.17;;;9.27;;
13163;SDS011;6647;53.688;10.746;2023-11-21T03:06:10;12.73;;;10.05;;
13163;SDS011;6647;53.688;10.746;2023-11-21T03:07:10;13.07;;;9.73;;
13163;SDS011;6647;53.688;10.746;2023-11-21T03:08:10;11.97;;;8.60;;
13163;SDS011;6647;53.688;10.746;2023-11-21T03:09:11;12.57;;;9.07;;
13163;SDS011;6647;53.688;10.746;2023-11-21T03:10:14;12.25;;;8.60;;
13163;SDS011;6647;53.688;10.746;2023-11-21T03:11:14;10.83;;;8.37;;
13163;SDS011;6647;53.688;10.746;2023-11-21T03:12:14;11.57;;;8.67;;
13163;SDS011;6647;53.688;10.746;2023-11-21T03:13:16;12.90;;;9.25;;
13163;SDS011;6647;53.688;10.746;2023-11-21T03:14:16;12.60;;;9.03;;
13163;SDS011;6647;53.688;10.746;2023-11-21T03:15:16;15.33;;;9.53;;
13163;SDS011;6647;53.688;10.746;2023-11-21T03:16:16;13.20;;;9.47;;
13163;SDS011;6647;53.688;10.746;2023-11-21T03:17:17;14.40;;;9.10;;
13163;SDS011;6647;53.688;10.746;2023-11-21T03:18:17;12.20;;;9.67;;
13163;SDS011;6647;53.688;10.746;2023-11-21T03:19:17;12.40;;;9.40;;
13163;SDS011;6647;53.688;10.746;2023-11-21T03:20:18;11.67;;;9.03;;
13163;SDS011;6647;53.688;10.746;2023-11-21T03:21:18;8.90;;;8.00;;
13163;SDS011;6647;53.688;10.746;2023-11-21T03:22:19;10.70;;;8.00;;
13163;SDS011;6647;53.688;10.746;2023-11-21T03:23:19;11.07;;;9.20;;
13163;SDS011;6647;53.688;10.746;2023-11-21T03:24:19;11.20;;;8.70;;
13163;SDS011;6647;53.688;10.746;2023-11-21T03:25:20;11.07;;;8.60;;
13163;SDS011;6647;53.688;10.746;2023-11-21T03:26:20;12.77;;;9.37;;
13163;SDS011;6647;53.688;10.746;2023-11-21T03:27:20;13.80;;;9.10;;
13163;SDS011;6647;53.688;10.746;2023-11-21T03:28:21;12.90;;;9.60;;
13163;SDS011;6647;53.688;10.746;2023-11-21T03:29:21;13.40;;;8.47;;
13163;SDS011;6647;53.688;10.746;2023-11-21T03:30:21;11.90;;;9.63;;
13163;SDS011;6647;53.688;10.746;2023-11-21T03:31:22;12.10;;;9.87;;
13163;SDS011;6647;53.688;10.746;2023-11-21T03:32:22;13.53;;;9.70;;
13163;SDS011;6647;53.688;10.746;2023-11-21T03:33:23;16.23;;;9.63;;
13163;SDS011;6647;53.688;10.746;2023-11-21T03:34:24;13.53;;;8.80;;
13163;SDS011;6647;53.688;10.746;2023-11-21T03:35:28;16.33;;;10.43;;
13163;SDS011;6647;53.688;10.746;2023-11-21T03:36:28;12.50;;;9.30;;
13163;SDS011;6647;53.688;10.746;2023-11-21T03:37:28;12.23;;;9.77;;
13163;SDS011;6647;53.688;10.746;2023-11-21T03:38:29;13.97;;;9.60;;
13163;SDS011;6647;53.688;10.746;2023-11-21T03:39:29;12.10;;;9.17;;
13163;SDS011;6647;53.688;10.746;2023-11-21T03:40:29;18.20;;;8.77;;
13163;SDS011;6647;53.688;10.746;2023-11-21T03:41:31;12.25;;;9.00;;
13163;SDS011;6647;53.688;10.746;2023-11-21T03:42:31;12.30;;;9.27;;
13163;SDS011;6647;53.688;10.746;2023-11-21T03:43:31;10.77;;;8.53;;
13163;SDS011;6647;53.688;10.746;2023-11-21T03:44:32;12.23;;;9.27;;
13163;SDS011;6647;53.688;10.746;2023-11-21T03:45:32;14.70;;;9.20;;
13163;SDS011;6647;53.688;10.746;2023-11-21T03:46:33;17.17;;;9.90;;
13163;SDS011;6647;53.688;10.746;2023-11-21T03:47:33;10.83;;;9.30;;
13163;SDS011;6647;53.688;10.746;2023-11-21T03:48:34;13.97;;;9.23;;
13163;SDS011;6647;53.688;10.746;2023-11-21T03:49:34;12.63;;;9.30;;
13163;SDS011;6647;53.688;10.746;2023-11-21T03:50:35;12.53;;;9.23;;
13163;SDS011;6647;53.688;10.746;2023-11-21T03:51:35;12.23;;;8.73;;
13163;SDS011;6647;53.688;10.746;2023-11-21T03:52:35;10.80;;;9.40;;
13163;SDS011;6647;53.688;10.746;2023-11-21T03:53:36;12.80;;;8.60;;
13163;SDS011;6647;53.688;10.746;2023-11-21T03:54:36;13.43;;;8.37;;
13163;SDS011;6647;53.688;10.746;2023-11-21T03:55:36;16.27;;;10.07;;
13163;SDS011;6647;53.688;10.746;2023-11-21T03:56:37;11.63;;;8.20;;
13163;SDS011;6647;53.688;10.746;2023-11-21T03:57:37;11.77;;;9.53;;
13163;SDS011;6647;53.688;10.746;2023-11-21T03:58:37;13.83;;;9.33;;
13163;SDS011;6647;53.688;10.746;2023-11-21T03:59:41;11.33;;;8.50;;
13163;SDS011;6647;53.688;10.746;2023-11-21T04:00:41;11.50;;;8.20;;
13163;SDS011;6647;53.688;10.746;2023-11-21T04:01:42;15.30;;;9.40;;
13163;SDS011;6647;53.688;10.746;2023-11-21T04:02:42;12.37;;;9.50;;
13163;SDS011;6647;53.688;10.746;2023-11-21T04:03:42;10.13;;;8.50;;
13163;SDS011;6647;53.688;10.746;2023-11-21T04:04:43;11.30;;;9.90;;
13163;SDS011;6647;53.688;10.746;2023-11-21T04:05:44;10.30;;;8.30;;
13163;SDS011;6647;53.688;10.746;2023-11-21T04:06:45;11.50;;;10.13;;
13163;SDS011;6647;53.688;10.746;2023-11-21T04:07:46;10.83;;;9.20;;
13163;SDS011;6647;53.688;10.746;2023-11-21T04:08:46;11.33;;;9.60;;
13163;SDS011;6647;53.688;10.746;2023-11-21T04:09:47;10.53;;;8.80;;
13163;SDS011;6647;53.688;10.746;2023-11-21T04:10:47;12.37;;;9.27;;
13163;SDS011;6647;53.688;10.746;2023-11-21T04:11:48;15.55;;;10.02;;
13163;SDS011;6647;53.688;10.746;2023-11-21T04:12:48;11.00;;;9.00;;
13163;SDS011;6647;53.688;10.746;2023-11-21T04:13:49;12.10;;;9.83;;
13163;SDS011;6647;53.688;10.746;2023-11-21T04:14:49;14.03;;;9.90;;
13163;SDS011;6647;53.688;10.746;2023-11-21T04:15:49;15.10;;;9.33;;
13163;SDS011;6647;53.688;10.746;2023-11-21T04:16:50;13.10;;;9.33;;
13163;SDS011;6647;53.688;10.746;2023-11-21T04:17:50;16.47;;;9.00;;
13163;SDS011;6647;53.688;10.746;2023-11-21T04:18:50;12.27;;;9.87;;
13163;SDS011;6647;53.688;10.746;2023-11-21T04:19:51;13.47;;;10.23;;
13163;SDS011;6647;53.688;10.746;2023-11-21T04:20:51;10.57;;;9.00;;
13163;SDS011;6647;53.688;10.746;2023-11-21T04:21:51;13.07;;;9.30;;
13163;SDS011;6647;53.688;10.746;2023-11-21T04:22:52;12.60;;;9.40;;
13163;SDS011;6647;53.688;10.746;2023-11-21T04:23:52;13.70;;;10.50;;
13163;SDS011;6647;53.688;10.746;2023-11-21T04:24:52;13.47;;;10.40;;
13163;SDS011;6647;53.688;10.746;2023-11-21T04:25:52;15.27;;;10.00;;
13163;SDS011;6647;53.688;10.746;2023-11-21T04:26:54;16.88;;;10.40;;
13163;SDS011;6647;53.688;10.746;2023-11-21T04:27:54;14.17;;;9.80;;
13163;SDS011;6647;53.688;10.746;2023-11-21T04:28:54;14.03;;;10.30;;
13163;SDS011;6647;53.688;10.746;2023-11-21T04:29:55;11.87;;;9.47;;
13163;SDS011;6647;53.688;10.746;2023-11-21T04:30:55;13.07;;;9.40;;
13163;SDS011;6647;53.688;10.746;2023-11-21T04:31:56;14.43;;;9.33;;
13163;SDS011;6647;53.688;10.746;2023-11-21T04:32:56;13.30;;;10.57;;
13163;SDS011;6647;53.688;10.746;2023-11-21T04:33:57;15.97;;;11.30;;
13163;SDS011;6647;53.688;10.746;2023-11-21T04:34:57;17.43;;;10.67;;
13163;SDS011;6647;53.688;10.746;2023-11-21T04:35:57;15.03;;;10.50;;
13163;SDS011;6647;53.688;10.746;2023-11-21T04:36:58;15.43;;;10.93;;
13163;SDS011;6647;53.688;10.746;2023-11-21T04:37:58;18.27;;;11.33;;
13163;SDS011;6647;53.688;10.746;2023-11-21T04:38:58;17.43;;;10.50;;
13163;SDS011;6647;53.688;10.746;2023-11-21T04:39:59;13.97;;;10.70;;
13163;SDS011;6647;53.688;10.746;2023-11-21T04:40:59;13.60;;;10.60;;
13163;SDS011;6647;53.688;10.746;2023-11-21T04:41:59;15.83;;;10.63;;
13163;SDS011;6647;53.688;10.746;2023-11-21T04:43:00;15.67;;;10.13;;
13163;SDS011;6647;53.688;10.746;2023-11-21T04:44:01;16.73;;;11.57;;
13163;SDS011;6647;53.688;10.746;2023-11-21T04:45:01;15.27;;;10.00;;
13163;SDS011;6647;53.688;10.746;2023-11-21T04:46:05;13.77;;;9.45;;
13163;SDS011;6647;53.688;10.746;2023-11-21T04:47:06;14.57;;;10.65;;
13163;SDS011;6647;53.688;10.746;2023-11-21T04:48:07;15.13;;;10.30;;
13163;SDS011;6647;53.688;10.746;2023-11-21T04:49:08;10.57;;;9.30;;
13163;SDS011;6647;53.688;10.746;2023-11-21T04:50:09;13.57;;;10.77;;
13163;SDS011;6647;53.688;10.746;2023-11-21T04:51:09;15.57;;;10.37;;
13163;SDS011;6647;53.688;10.746;2023-11-21T04:52:11;15.65;;;10.27;;
13163;SDS011;6647;53.688;10.746;2023-11-21T04:53:12;15.20;;;11.33;;
13163;SDS011;6647;53.688;10.746;2023-11-21T04:54:14;14.02;;;9.77;;
13163;SDS011;6647;53.688;10.746;2023-11-21T04:55:15;16.80;;;11.97;;
13163;SDS011;6647;53.688;10.746;2023-11-21T04:56:15;12.70;;;10.07;;
13163;SDS011;6647;53.688;10.746;2023-11-21T04:57:18;13.80;;;10.65;;
13163;SDS011;6647;53.688;10.746;2023-11-21T04:58:19;13.23;;;10.37;;
13163;SDS011;6647;53.688;10.746;2023-11-21T04:59:20;13.30;;;10.38;;
13163;SDS011;6647;53.688;10.746;2023-11-21T05:00:24;13.55;;;10.02;;
13163;SDS011;6647;53.688;10.746;2023-11-21T05:01:25;12.43;;;9.77;;
13163;SDS011;6647;53.688;10.746;2023-11-21T05:02:25;18.37;;;11.37;;
13163;SDS011;6647;53.688;10.746;2023-11-21T05:03:25;14.27;;;11.17;;
13163;SDS011;6647;53.688;10.746;2023-11-21T05:04:26;16.47;;;11.10;;
13163;SDS011;6647;53.688;10.746;2023-11-21T05:05:27;13.73;;;11.00;;
13163;SDS011;6647;53.688;10.746;2023-11-21T05:06:27;16.43;;;11.73;;
13163;SDS011;6647;53.688;10.746;2023-11-21T05:07:27;14.13;;;10.77;;
13163;SDS011;6647;53.688;10.746;2023-11-21T05:08:28;13.65;;;11.25;;
13163;SDS011;6647;53.688;10.746;2023-11-21T05:09:29;15.43;;;11.33;;
13163;SDS011;6647;53.688;10.746;2023-11-21T05:10:32;15.77;;;10.80;;
13163;SDS011;6647;53.688;10.746;2023-11-21T05:11:32;13.57;;;11.30;;
13163;SDS011;6647;53.688;10.746;2023-11-21T05:12:32;15.47;;;11.67;;
13163;SDS011;6647;53.688;10.746;2023-11-21T05:13:36;13.63;;;10.63;;
13163;SDS011;6647;53.688;10.746;2023-11-21T05:14:37;13.70;;;10.90;;
13163;SDS011;6647;53.688;10.746;2023-11-21T05:15:37;20.20;;;11.30;;
13163;SDS011;6647;53.688;10.746;2023-11-21T05:16:39;16.95;;;11.95;;
13163;SDS011;6647;53.688;10.746;2023-11-21T05:17:39;13.40;;;10.93;;
13163;SDS011;6647;53.688;10.746;2023-11-21T05:18:43;13.50;;;11.30;;
13163;SDS011;6647;53.688;10.746;2023-11-21T05:19:44;15.30;;;10.63;;
13163;SDS011;6647;53.688;10.746;2023-11-21T05:20:46;12.85;;;10.23;;
13163;SDS011;6647;53.688;10.746;2023-11-21T05:21:47;15.85;;;10.68;;
13163;SDS011;6647;53.688;10.746;2023-11-21T05:22:47;12.53;;;9.73;;
13163;SDS011;6647;53.688;10.746;2023-11-21T05:23:51;14.93;;;11.32;;
13163;SDS011;6647;53.688;10.746;2023-11-21T05:24:51;12.33;;;10.10;;
13163;SDS011;6647;53.688;10.746;2023-11-21T05:25:51;12.03;;;10.20;;
13163;SDS011;6647;53.688;10.746;2023-11-21T05:26:52;14.97;;;11.30;;
13163;SDS011;6647;53.688;10.746;2023-11-21T05:27:52;16.60;;;11.87;;
13163;SDS011;6647;53.688;10.746;2023-11-21T05:28:54;13.65;;;11.00;;
13163;SDS011;6647;53.688;10.746;2023-11-21T05:29:55;18.80;;;11.50;;
13163;SDS011;6647;53.688;10.746;2023-11-21T05:30:55;14.90;;;11.30;;
13163;SDS011;6647;53.688;10.746;2023-11-21T05:31:55;15.13;;;10.80;;
13163;SDS011;6647;53.688;10.746;2023-11-21T05:32:56;14.67;;;10.93;;
13163;SDS011;6647;53.688;10.746;2023-11-21T05:33:56;19.13;;;11.83;;
13163;SDS011;6647;53.688;10.746;2023-11-21T05:34:57;16.73;;;11.10;;
13163;SDS011;6647;53.688;10.746;2023-11-21T05:35:57;16.50;;;11.50;;
13163;SDS011;6647;53.688;10.746;2023-11-21T05:36:57;15.23;;;10.00;;
13163;SDS011;6647;53.688;10.746;2023-11-21T05:37:58;12.83;;;10.13;;
13163;SDS011;6647;53.688;10.746;2023-11-21T05:38:58;14.77;;;11.30;;
13163;SDS011;6647;53.688;10.746;2023-11-21T05:39:59;14.80;;;10.47;;
13163;SDS011;6647;53.688;10.746;2023-11-21T05:41:04;15.10;;;10.50;;
13163;SDS011;6647;53.688;10.746;2023-11-21T05:42:05;18.20;;;11.57;;
13163;SDS011;6647;53.688;10.746;2023-11-21T05:43:06;18.58;;;10.45;;
13163;SDS011;6647;53.688;10.746;2023-11-21T05:44:07;13.37;;;11.00;;
13163;SDS011;6647;53.688;10.746;2023-11-21T05:45:07;20.57;;;10.47;;
13163;SDS011;6647;53.688;10.746;2023-11-21T05:46:11;15.52;;;9.63;;
13163;SDS011;6647;53.688;10.746;2023-11-21T05:47:11;15.70;;;11.53;;
13163;SDS011;6647;53.688;10.746;2023-11-21T05:48:13;13.25;;;10.32;;
13163;SDS011;6647;53.688;10.746;2023-11-21T05:49:13;14.77;;;11.10;;
13163;SDS011;6647;53.688;10.746;2023-11-21T05:50:14;13.30;;;10.40;;
13163;SDS011;6647;53.688;10.746;2023-11-21T05:51:15;15.45;;;9.60;;
13163;SDS011;6647;53.688;10.746;2023-11-21T05:52:17;14.32;;;10.27;;
13163;SDS011;6647;53.688;10.746;2023-11-21T05:53:18;12.40;;;9.50;;
13163;SDS011;6647;53.688;10.746;2023-11-21T05:54:18;13.70;;;10.80;;
13163;SDS011;6647;53.688;10.746;2023-11-21T05:55:18;14.73;;;10.03;;
13163;SDS011;6647;53.688;10.746;2023-11-21T05:56:21;16.25;;;10.60;;
13163;SDS011;6647;53.688;10.746;2023-11-21T05:57:21;14.33;;;9.93;;
13163;SDS011;6647;53.688;10.746;2023-11-21T05:58:21;15.43;;;10.40;;